Darwin International Airport
YPDN : now visible

Airfield :











YOU CAN JOIN US ON...

 
LOGIN :

Register | Disclaimer

   EN    FR    IT 

 









Legend :    VFR   Marginal VFR   IFR   Intensive IFR   Very Intensive IFR
Visi :
Ceiling :
>= 8 km
>= 3000ft
5 to 8 km
1000 to 3000 ft
1500m to 5 km
500 to 1000 ft
800 to 1500m
200 to 500 ft
< 800m
< 200 ft
Symbols :   Thunderstorms  Fog  Heavy snow  Heavy precipitations  Wind > 20 kt






- Airport Elevation : 103 ft
- IATA code : DRW


YPDN - Darwin International

CURRENT METAR :
  • 271330Z 34009KT 9999 -RA FEW013 SCT017 BKN030 28/27 Q1004

EXPIRED METARs :
  • 271300Z 32016KT 9999 VCSH SCT013 BKN017 BKN300 29/27 Q1004
  • 271230Z 33011KT 9999 -SHRA BKN017 SCT050 BKN300 29/27 Q1004
  • 271217Z 31013KT //// -SHRA BKN017 SCT060 BKN300 28/26 Q1004
  • 271130Z 34012KT 9999 VCSH BKN017 SCT060 BKN300 29/26 Q1003 INTER 1130/1230 VRB20G30KT 2000 SHRA BKN015 RMK USE TAF FOR ARRIVALS AFTER 1230Z
  • 271100Z 34014KT 9999 VCSH FEW016 SCT060 BKN300 28/26 Q1003 INTER 1100/1230 VRB20G30KT 2000 SHRA BKN015 RMK USE TAF FOR ARRIVALS AFTER 1230Z

TAF TAF YPDN
Valid from the 27 at 12:00 until the 28 at 18:00 UTC


271106Z 2712/2818 34015KT 8000 -RA SCT015 BKN020
FM280200 35015KT 9999 -RA SCT025
FM281200 02012KT 9999 -RA SCT015 BKN025
TEMPO 2712/2802 VRB20G30KT 2000 SHRA BKN015 INTER 2802/2818 VRB20G30KT 2000 SHRA BKN015
PROB30
TEMPO 2712/2818 VRB20G45KT 1000 TSRA BKN008 SCT020CB



MET'MAP, your aeronautical weather chart ! - Copyright ORBIFLY December 2007 - Disclaimer

ORBIFLY MET'MAP TEAM :

Programming & Development : Alexandra Zaïnal
Concept & original design : Baudouin d'Aumeries
Assistance for programming : Marc-Olivier Méhu
Technical & hardware support : Manuel Goepfert

Contact : metmap@orbifly.com




SOURCES & CREDITS :

   NOAA       Earth
Advisory